createdAt,value
2017-04-04T00:00:51.746Z,0
2017-04-04T00:02:01.661Z,0
2017-04-04T00:03:11.281Z,0
2017-04-04T00:04:21.657Z,0
2017-04-04T00:05:31.262Z,0
2017-04-04T00:06:41.203Z,0
2017-04-04T00:07:51.445Z,0
2017-04-04T00:09:01.692Z,0
2017-04-04T00:10:11.779Z,0
2017-04-04T00:11:21.429Z,0
2017-04-04T00:12:30.738Z,0
2017-04-04T00:13:40.964Z,0
2017-04-04T00:14:50.574Z,0
2017-04-04T00:16:00.903Z,0
2017-04-04T00:17:10.842Z,0
2017-04-04T00:18:20.760Z,0
2017-04-04T00:19:30.414Z,0
2017-04-04T00:20:40.627Z,0
2017-04-04T00:21:50.724Z,0
2017-04-04T00:23:00.653Z,0
2017-04-04T00:24:10.584Z,0
2017-04-04T00:25:20.542Z,0
2017-04-04T00:26:30.765Z,0
2017-04-04T00:27:40.550Z,0
2017-04-04T00:28:50.464Z,0
2017-04-04T00:30:00.689Z,0
2017-04-04T00:31:10.909Z,0
2017-04-04T00:32:21.148Z,0
2017-04-04T00:33:31.232Z,0
2017-04-04T00:34:40.520Z,0
2017-04-04T00:35:50.453Z,0
2017-04-04T00:37:00.677Z,0
2017-04-04T00:38:10.966Z,0
2017-04-04T00:39:21.211Z,0
2017-04-04T00:40:31.145Z,0
2017-04-04T00:41:41.364Z,0
2017-04-04T00:42:50.967Z,0
2017-04-04T00:44:00.885Z,0
2017-04-04T00:45:11.088Z,0
2017-04-04T00:46:21.021Z,0
2017-04-04T00:47:30.025Z,0
2017-04-04T00:48:39.644Z,0
2017-04-04T00:49:49.563Z,0
2017-04-04T00:51:00.094Z,0
2017-04-04T00:52:09.701Z,0
2017-04-04T00:53:19.915Z,0
2017-04-04T00:54:29.885Z,0
2017-04-04T00:55:39.501Z,0
2017-04-04T00:56:49.569Z,0
2017-04-04T00:57:58.871Z,0
2017-04-04T00:59:08.474Z,0
2017-04-04T01:00:18.373Z,0
2017-04-04T01:01:28.584Z,0
2017-04-04T01:02:38.798Z,0
2017-04-04T01:03:49.024Z,0
2017-04-04T01:04:58.661Z,0
2017-04-04T01:06:08.328Z,0
2017-04-04T01:07:18.579Z,0
2017-04-04T01:08:29.289Z,0
2017-04-04T01:09:39.299Z,0
2017-04-04T01:10:49.250Z,0
2017-04-04T01:11:58.899Z,0
2017-04-04T01:13:09.123Z,0
2017-04-04T01:14:19.522Z,0
2017-04-04T01:15:29.528Z,0
2017-04-04T01:16:39.774Z,0
2017-04-04T01:17:49.688Z,0
2017-04-04T01:18:59.300Z,0
2017-04-04T01:20:10.005Z,0
2017-04-04T01:21:19.928Z,0
2017-04-04T01:22:29.220Z,0
2017-04-04T01:23:39.119Z,0
2017-04-04T01:24:48.725Z,0
2017-04-04T01:25:58.946Z,0
2017-04-04T01:27:09.165Z,0
2017-04-04T01:28:19.084Z,0
2017-04-04T01:29:28.994Z,0
2017-04-04T01:30:38.956Z,0
2017-04-04T01:31:48.866Z,0
2017-04-04T01:32:58.470Z,0
2017-04-04T01:34:08.081Z,0
2017-04-04T01:35:18.297Z,0
2017-04-04T01:36:28.515Z,0
2017-04-04T01:37:38.176Z,0
2017-04-04T01:38:48.083Z,0
2017-04-04T01:39:57.986Z,0
2017-04-04T01:41:07.902Z,0
2017-04-04T01:42:17.822Z,0
2017-04-04T01:43:27.883Z,0
2017-04-04T01:44:37.795Z,0
2017-04-04T01:45:47.704Z,0
2017-04-04T01:46:57.316Z,0
2017-04-04T01:48:07.251Z,0
2017-04-04T01:49:17.614Z,0
2017-04-04T01:50:27.533Z,0
2017-04-04T01:51:37.133Z,0
2017-04-04T01:52:47.351Z,0
2017-04-04T01:53:57.577Z,0
2017-04-04T01:55:07.600Z,0
2017-04-04T01:56:17.519Z,0
2017-04-04T01:57:27.740Z,0
2017-04-04T01:58:37.654Z,0
2017-04-04T01:59:47.878Z,0
2017-04-04T02:00:58.441Z,0
2017-04-04T02:02:08.365Z,0
2017-04-04T02:03:18.277Z,0
2017-04-04T02:04:27.874Z,0
2017-04-04T02:05:37.782Z,0
2017-04-04T02:06:47.694Z,0
2017-04-04T02:07:57.598Z,0
2017-04-04T02:09:06.627Z,0
2017-04-04T02:10:16.538Z,0
2017-04-04T02:11:26.143Z,0
2017-04-04T02:12:35.856Z,0
2017-04-04T02:13:45.760Z,0
2017-04-04T02:14:55.987Z,0
2017-04-04T02:16:05.310Z,0
2017-04-04T02:17:15.216Z,0
2017-04-04T02:18:25.467Z,0
2017-04-04T02:19:35.695Z,0
2017-04-04T02:20:44.993Z,0
2017-04-04T02:21:55.219Z,0
2017-04-04T02:23:05.128Z,0
2017-04-04T02:24:14.763Z,0
2017-04-04T02:25:24.697Z,0
2017-04-04T02:26:34.601Z,0
2017-04-04T02:27:44.203Z,0
2017-04-04T02:28:53.850Z,0
2017-04-04T02:30:04.421Z,0
2017-04-04T02:31:14.640Z,0
2017-04-04T02:32:24.545Z,0
2017-04-04T02:33:34.778Z,0
2017-04-04T02:34:44.689Z,0
2017-04-04T02:35:54.713Z,0
2017-04-04T02:37:04.923Z,0
2017-04-04T02:38:15.171Z,0
2017-04-04T02:39:24.778Z,0
2017-04-04T02:40:34.388Z,0
2017-04-04T02:41:44.719Z,0
2017-04-04T02:42:54.644Z,0
2017-04-04T02:44:04.560Z,0
2017-04-04T02:45:14.792Z,0
2017-04-04T02:46:24.701Z,0
2017-04-04T02:47:34.769Z,0
2017-04-04T02:48:44.685Z,0
2017-04-04T02:49:54.605Z,0
2017-04-04T02:51:04.519Z,0
2017-04-04T02:52:14.441Z,0
2017-04-04T02:53:24.184Z,0
2017-04-04T02:54:33.791Z,0
2017-04-04T02:55:44.012Z,0
2017-04-04T02:56:53.629Z,0
2017-04-04T02:58:03.908Z,0
2017-04-04T02:59:13.660Z,0
2017-04-04T03:00:23.880Z,0
2017-04-04T03:01:34.107Z,0
2017-04-04T03:02:44.336Z,0
2017-04-04T03:03:54.237Z,0
2017-04-04T03:05:03.940Z,0
2017-04-04T03:06:13.850Z,0
2017-04-04T03:07:24.058Z,0
2017-04-04T03:08:33.961Z,0
2017-04-04T03:09:44.171Z,0
2017-04-04T03:10:55.145Z,0
2017-04-04T03:12:05.053Z,0
2017-04-04T03:13:14.969Z,0
2017-04-04T03:14:25.183Z,0
2017-04-04T03:15:34.797Z,0
2017-04-04T03:16:45.385Z,0
2017-04-04T03:17:55.290Z,0
2017-04-04T03:19:05.213Z,0
2017-04-04T03:20:14.816Z,0
2017-04-04T03:21:25.048Z,0
2017-04-04T03:22:35.268Z,0
2017-04-04T03:23:45.485Z,0
2017-04-04T03:24:55.103Z,0
2017-04-04T03:26:04.706Z,0
2017-04-04T03:27:14.923Z,0
2017-04-04T03:28:24.825Z,0
2017-04-04T03:29:34.425Z,0
2017-04-04T03:30:44.641Z,0
2017-04-04T03:31:54.250Z,0
2017-04-04T03:33:04.168Z,0
2017-04-04T03:34:15.497Z,0
2017-04-04T03:35:25.703Z,0
2017-04-04T03:36:35.618Z,0
2017-04-04T03:37:45.539Z,0
2017-04-04T03:38:55.755Z,0
2017-04-04T03:40:06.429Z,0
2017-04-04T03:41:16.072Z,0
2017-04-04T03:42:25.675Z,0
2017-04-04T03:43:35.581Z,0
2017-04-04T03:44:45.188Z,0
2017-04-04T03:45:55.800Z,0
2017-04-04T03:47:05.401Z,0
2017-04-04T03:48:15.022Z,0
2017-04-04T03:49:24.935Z,0
2017-04-04T03:50:34.535Z,0
2017-04-04T03:51:44.765Z,0
2017-04-04T03:52:54.064Z,0
2017-04-04T03:54:04.268Z,0
2017-04-04T03:55:14.478Z,0
2017-04-04T03:56:25.071Z,0
2017-04-04T03:57:35.441Z,0
2017-04-04T03:58:45.345Z,0
2017-04-04T03:59:54.956Z,0
2017-04-04T04:01:04.872Z,0
2017-04-04T04:02:14.774Z,0
2017-04-04T04:03:24.981Z,0
2017-04-04T04:04:34.898Z,0
2017-04-04T04:05:44.829Z,0
2017-04-04T04:06:55.057Z,0
2017-04-04T04:08:04.764Z,0
2017-04-04T04:09:14.694Z,0
2017-04-04T04:10:24.924Z,0
2017-04-04T04:11:34.835Z,0
2017-04-04T04:12:44.464Z,0
2017-04-04T04:13:53.771Z,0
2017-04-04T04:15:03.837Z,0
2017-04-04T04:16:13.437Z,0
2017-04-04T04:17:23.659Z,0
2017-04-04T04:18:33.890Z,0
2017-04-04T04:19:43.187Z,0
2017-04-04T04:20:53.851Z,0
2017-04-04T04:22:03.767Z,0
2017-04-04T04:23:13.677Z,0
2017-04-04T04:24:23.893Z,0
2017-04-04T04:25:34.120Z,0
2017-04-04T04:26:44.502Z,0
2017-04-04T04:27:54.743Z,0
2017-04-04T04:29:05.035Z,0
2017-04-04T04:30:14.946Z,0
2017-04-04T04:31:24.868Z,0
2017-04-04T04:32:34.771Z,0
2017-04-04T04:33:44.712Z,0
2017-04-04T04:34:54.919Z,4
2017-04-04T04:36:04.261Z,0
2017-04-04T04:37:14.489Z,4
2017-04-04T04:38:24.553Z,4
2017-04-04T04:39:34.761Z,4
2017-04-04T04:40:45.351Z,4
2017-04-04T04:41:54.679Z,8
2017-04-04T04:43:04.286Z,8
2017-04-04T04:44:14.298Z,8
2017-04-04T04:45:24.218Z,12
2017-04-04T04:46:33.199Z,16
2017-04-04T04:47:42.806Z,16
2017-04-04T04:48:52.449Z,20
2017-04-04T04:50:02.313Z,24
2017-04-04T04:51:12.275Z,28
2017-04-04T04:52:22.197Z,32
2017-04-04T04:53:32.415Z,36
2017-04-04T04:54:42.028Z,40
2017-04-04T04:55:52.387Z,48
2017-04-04T04:57:02.305Z,52
2017-04-04T04:58:11.977Z,56
2017-04-04T04:59:21.914Z,64
2017-04-04T05:00:31.260Z,76
2017-04-04T05:01:41.886Z,84
2017-04-04T05:02:51.555Z,92
2017-04-04T05:04:00.853Z,104
2017-04-04T05:05:11.101Z,116
2017-04-04T05:06:20.721Z,128
2017-04-04T05:07:30.492Z,140
2017-04-04T05:08:40.748Z,156
2017-04-04T05:09:50.673Z,172
2017-04-04T05:11:00.315Z,188
2017-04-04T05:12:09.924Z,208
2017-04-04T05:13:20.217Z,228
2017-04-04T05:14:30.149Z,248
2017-04-04T05:15:40.084Z,272
2017-04-04T05:16:49.740Z,296
2017-04-04T05:17:59.991Z,320
2017-04-04T05:19:09.462Z,348
2017-04-04T05:20:18.775Z,384
2017-04-04T05:21:29.023Z,416
2017-04-04T05:22:39.299Z,448
2017-04-04T05:23:49.205Z,480
2017-04-04T05:24:59.287Z,516
2017-04-04T05:26:08.907Z,548
2017-04-04T05:27:18.519Z,592
2017-04-04T05:28:28.145Z,636
2017-04-04T05:29:38.069Z,680
2017-04-04T05:30:48.557Z,724
2017-04-04T05:31:58.173Z,772
2017-04-04T05:33:08.400Z,812
2017-04-04T05:34:18.356Z,860
2017-04-04T05:35:27.956Z,904
2017-04-04T05:36:38.175Z,952
2017-04-04T05:37:47.788Z,996
2017-04-04T05:38:58.016Z,1040
2017-04-04T05:40:07.926Z,1084
2017-04-04T05:41:17.843Z,1128
2017-04-04T05:42:27.912Z,1172
2017-04-04T05:43:37.533Z,1212
2017-04-04T05:44:47.826Z,1252
2017-04-04T05:45:58.063Z,1292
2017-04-04T05:47:08.002Z,1332
2017-04-04T05:48:19.257Z,1380
2017-04-04T05:49:29.216Z,1428
2017-04-04T05:50:39.467Z,1476
2017-04-04T05:51:49.428Z,1528
2017-04-04T05:52:59.417Z,1572
2017-04-04T05:54:09.288Z,1616
2017-04-04T05:55:19.201Z,1660
2017-04-04T05:56:28.812Z,1704
2017-04-04T05:57:39.022Z,1748
2017-04-04T05:58:49.245Z,1796
2017-04-04T05:59:59.578Z,1848
2017-04-04T06:01:09.541Z,1896
2017-04-04T06:02:19.777Z,1944
2017-04-04T06:03:30.034Z,1992
2017-04-04T06:04:39.677Z,2028
2017-04-04T06:05:49.613Z,2076
2017-04-04T06:06:59.852Z,2120
2017-04-04T06:08:09.801Z,2164
2017-04-04T06:09:19.713Z,2208
2017-04-04T06:10:29.645Z,2248
2017-04-04T06:11:40.619Z,2296
2017-04-04T06:12:50.532Z,2336
2017-04-04T06:14:00.523Z,2392
2017-04-04T06:15:10.177Z,2432
2017-04-04T06:16:19.785Z,2472
2017-04-04T06:17:30.165Z,2516
2017-04-04T06:18:40.073Z,2548
2017-04-04T06:19:49.976Z,2592
2017-04-04T06:21:00.206Z,2636
2017-04-04T06:22:10.116Z,2672
2017-04-04T06:23:20.130Z,2716
2017-04-04T06:24:30.357Z,2756
2017-04-04T06:25:39.682Z,2800
2017-04-04T06:26:49.592Z,2844
2017-04-04T06:27:59.819Z,2888
2017-04-04T06:29:09.883Z,2928
2017-04-04T06:30:19.803Z,2964
2017-04-04T06:31:30.094Z,2992
2017-04-04T06:32:40.005Z,3028
2017-04-04T06:33:49.600Z,3056
2017-04-04T06:34:59.948Z,3096
2017-04-04T06:36:09.580Z,3128
2017-04-04T06:37:19.814Z,3156
2017-04-04T06:38:29.450Z,3168
2017-04-04T06:39:39.690Z,3192
2017-04-04T06:40:49.856Z,3212
2017-04-04T06:41:59.189Z,3228
2017-04-04T06:43:09.429Z,3248
2017-04-04T06:44:19.062Z,3268
2017-04-04T06:45:28.979Z,3296
2017-04-04T06:46:38.727Z,3324
2017-04-04T06:47:48.684Z,3352
2017-04-04T06:48:58.014Z,3376
2017-04-04T06:50:07.973Z,3400
2017-04-04T06:51:17.611Z,3420
2017-04-04T06:52:27.529Z,3444
2017-04-04T06:53:37.450Z,3488
2017-04-04T06:54:47.679Z,3524
2017-04-04T06:55:57.906Z,3552
2017-04-04T06:57:07.219Z,3564
2017-04-04T06:58:17.443Z,3568
2017-04-04T06:59:27.067Z,3556
2017-04-04T07:00:36.687Z,3560
2017-04-04T07:01:46.610Z,3564
2017-04-04T07:02:56.525Z,3572
2017-04-04T07:04:06.539Z,3576
2017-04-04T07:05:16.142Z,3576
2017-04-04T07:06:26.058Z,3568
2017-04-04T07:07:35.969Z,3556
2017-04-04T07:08:45.888Z,3548
2017-04-04T07:09:55.636Z,3544
2017-04-04T07:11:05.579Z,3564
2017-04-04T07:12:15.811Z,3588
2017-04-04T07:13:25.111Z,3608
2017-04-04T07:14:34.110Z,3624
2017-04-04T07:15:43.866Z,3612
2017-04-04T07:16:53.785Z,3588
2017-04-04T07:18:04.013Z,3560
2017-04-04T07:19:14.233Z,3532
2017-04-04T07:20:24.172Z,3512
2017-04-04T07:21:33.980Z,3508
2017-04-04T07:22:43.894Z,3508
2017-04-04T07:23:53.498Z,3520
2017-04-04T07:25:03.710Z,3532
2017-04-04T07:26:13.945Z,3520
2017-04-04T07:27:23.817Z,3496
2017-04-04T07:28:33.204Z,3464
2017-04-04T07:29:43.444Z,3436
2017-04-04T07:30:53.367Z,3420
2017-04-04T07:32:03.279Z,3404
2017-04-04T07:33:13.789Z,3400
2017-04-04T07:34:23.079Z,3400
2017-04-04T07:35:32.686Z,3396
2017-04-04T07:36:42.301Z,3388
2017-04-04T07:37:52.506Z,3364
2017-04-04T07:39:02.449Z,3340
2017-04-04T07:40:12.862Z,3324
2017-04-04T07:41:23.081Z,3328
2017-04-04T07:42:33.002Z,3332
2017-04-04T07:43:42.618Z,3344
2017-04-04T07:44:52.879Z,3344
2017-04-04T07:46:02.795Z,3336
2017-04-04T07:47:13.006Z,3324
2017-04-04T07:48:22.922Z,3308
2017-04-04T07:49:33.128Z,3292
2017-04-04T07:50:42.824Z,3280
2017-04-04T07:51:52.458Z,3252
2017-04-04T07:53:02.684Z,3236
2017-04-04T07:54:12.602Z,3216
2017-04-04T07:55:22.868Z,3200
2017-04-04T07:56:32.795Z,3172
2017-04-04T07:57:42.710Z,3176
2017-04-04T07:58:52.981Z,3180
2017-04-04T08:00:02.890Z,3168
2017-04-04T08:01:12.570Z,3144
2017-04-04T08:02:22.940Z,3132
2017-04-04T08:03:32.561Z,3104
2017-04-04T08:04:42.479Z,3084
2017-04-04T08:05:52.393Z,3052
2017-04-04T08:07:01.689Z,3024
2017-04-04T08:08:12.255Z,2996
2017-04-04T08:09:21.261Z,2984
2017-04-04T08:10:31.187Z,2964
2017-04-04T08:11:41.099Z,2936
2017-04-04T08:12:51.327Z,2912
2017-04-04T08:14:01.713Z,2896
2017-04-04T08:15:11.933Z,2884
2017-04-04T08:16:21.524Z,2872
2017-04-04T08:17:31.429Z,2852
2017-04-04T08:18:41.024Z,2836
2017-04-04T08:19:51.180Z,2808
2017-04-04T08:21:01.083Z,2776
2017-04-04T08:22:10.710Z,2744
2017-04-04T08:23:20.623Z,2712
2017-04-04T08:24:30.850Z,2676
2017-04-04T08:25:40.861Z,2656
2017-04-04T08:26:50.469Z,2632
2017-04-04T08:28:00.376Z,2608
2017-04-04T08:29:09.973Z,2596
2017-04-04T08:30:20.192Z,2580
2017-04-04T08:31:30.494Z,2568
2017-04-04T08:32:40.120Z,2556
2017-04-04T08:33:50.044Z,2552
2017-04-04T08:34:59.952Z,2524
2017-04-04T08:36:09.872Z,2504
2017-04-04T08:37:19.734Z,2484
2017-04-04T08:38:29.669Z,2464
2017-04-04T08:39:39.299Z,2444
2017-04-04T08:40:49.239Z,2420
2017-04-04T08:41:59.146Z,2400
2017-04-04T08:43:09.056Z,2392
2017-04-04T08:44:18.345Z,2376
2017-04-04T08:45:28.267Z,2360
2017-04-04T08:46:38.513Z,2332
2017-04-04T08:47:48.453Z,2308
2017-04-04T08:48:59.608Z,2284
2017-04-04T08:50:09.567Z,2260
2017-04-04T08:51:19.189Z,2248
2017-04-04T08:52:29.416Z,2224
2017-04-04T08:53:39.343Z,2204
2017-04-04T08:54:49.515Z,2180
2017-04-04T08:55:59.437Z,2156
2017-04-04T08:57:09.357Z,2136
2017-04-04T08:58:19.266Z,2108
2017-04-04T08:59:29.196Z,2076
2017-04-04T09:00:39.270Z,2056
2017-04-04T09:01:48.884Z,2044
2017-04-04T09:02:59.344Z,2028
2017-04-04T09:04:09.169Z,2008
2017-04-04T09:05:19.421Z,1996
2017-04-04T09:06:29.924Z,1992
2017-04-04T09:07:39.855Z,1996
2017-04-04T09:08:50.108Z,2000
2017-04-04T09:09:59.837Z,1984
2017-04-04T09:11:09.780Z,1976
2017-04-04T09:12:20.214Z,1968
2017-04-04T09:13:30.156Z,1952
2017-04-04T09:14:40.130Z,1944
2017-04-04T09:15:50.367Z,1932
2017-04-04T09:17:00.287Z,1920
2017-04-04T09:18:10.904Z,1912
2017-04-04T09:19:20.839Z,1900
2017-04-04T09:20:30.473Z,1888
2017-04-04T09:21:40.391Z,1880
2017-04-04T09:22:49.708Z,1864
2017-04-04T09:23:59.798Z,1848
2017-04-04T09:25:09.760Z,1844
2017-04-04T09:26:19.991Z,1832
2017-04-04T09:27:29.946Z,1820
2017-04-04T09:28:39.857Z,1792
2017-04-04T09:29:49.824Z,1768
2017-04-04T09:30:59.439Z,1752
2017-04-04T09:32:09.348Z,1740
2017-04-04T09:33:19.266Z,1716
2017-04-04T09:34:28.563Z,1704
2017-04-04T09:35:39.125Z,1692
2017-04-04T09:36:48.718Z,1688
2017-04-04T09:37:58.929Z,1664
2017-04-04T09:39:08.538Z,1640
2017-04-04T09:40:18.445Z,1624
2017-04-04T09:41:28.070Z,1620
2017-04-04T09:42:38.027Z,1620
2017-04-04T09:43:47.096Z,1604
2017-04-04T09:44:57.011Z,1592
2017-04-04T09:46:06.935Z,1572
2017-04-04T09:47:17.470Z,1556
2017-04-04T09:48:27.477Z,1548
2017-04-04T09:49:37.088Z,1544
2017-04-04T09:50:46.700Z,1556
2017-04-04T09:51:56.917Z,1560
2017-04-04T09:53:07.133Z,1548
2017-04-04T09:54:16.874Z,1544
2017-04-04T09:55:26.811Z,1536
2017-04-04T09:56:36.455Z,1544
2017-04-04T09:57:46.094Z,1548
2017-04-04T09:58:56.162Z,1556
2017-04-04T10:00:06.097Z,1540
2017-04-04T10:01:16.100Z,1532
2017-04-04T10:02:25.747Z,1524
2017-04-04T10:03:35.973Z,1508
2017-04-04T10:04:46.335Z,1492
2017-04-04T10:05:55.631Z,1488
2017-04-04T10:07:05.860Z,1500
2017-04-04T10:08:15.467Z,1504
2017-04-04T10:09:25.078Z,1504
2017-04-04T10:10:35.286Z,1504
2017-04-04T10:11:44.904Z,1508
2017-04-04T10:12:55.124Z,1512
2017-04-04T10:14:05.083Z,1512
2017-04-04T10:15:14.683Z,1508
2017-04-04T10:16:24.591Z,1520
2017-04-04T10:17:34.836Z,1500
2017-04-04T10:18:44.742Z,1460
2017-04-04T10:19:54.659Z,1296
2017-04-04T10:21:04.580Z,1356
2017-04-04T10:22:14.660Z,1228
2017-04-04T10:23:24.564Z,1324
2017-04-04T10:24:34.469Z,1344
2017-04-04T10:25:44.521Z,1284
2017-04-04T10:26:54.470Z,1396
2017-04-04T10:28:04.608Z,1392
2017-04-04T10:29:14.225Z,1380
2017-04-04T10:30:24.153Z,1376
2017-04-04T10:31:34.082Z,1356
2017-04-04T10:32:44.026Z,1376
2017-04-04T10:33:53.554Z,1404
2017-04-04T10:35:03.469Z,1408
2017-04-04T10:36:13.373Z,1440
2017-04-04T10:37:22.984Z,1496
2017-04-04T10:38:32.898Z,1600
2017-04-04T10:39:42.533Z,1764
2017-04-04T10:40:52.245Z,1868
2017-04-04T10:42:02.181Z,2000
2017-04-04T10:43:12.115Z,2188
2017-04-04T10:44:22.337Z,2320
2017-04-04T10:45:32.259Z,2388
2017-04-04T10:46:42.172Z,2464
2017-04-04T10:47:51.774Z,2468
2017-04-04T10:49:01.692Z,2416
2017-04-04T10:50:11.920Z,2372
2017-04-04T10:51:22.195Z,2000
2017-04-04T10:52:32.092Z,1796
2017-04-04T10:53:42.019Z,1748
2017-04-04T10:54:52.237Z,1636
2017-04-04T10:56:01.525Z,1484
2017-04-04T10:57:11.260Z,1564
2017-04-04T10:58:21.206Z,1432
2017-04-04T10:59:31.127Z,1452
2017-04-04T11:00:40.744Z,1604
2017-04-04T11:01:50.715Z,1608
2017-04-04T11:03:01.279Z,1616
2017-04-04T11:04:11.197Z,1648
2017-04-04T11:05:21.118Z,1676
2017-04-04T11:06:31.046Z,1744
2017-04-04T11:07:40.973Z,1752
2017-04-04T11:08:50.917Z,1804
2017-04-04T11:10:00.824Z,1888
2017-04-04T11:11:11.048Z,1980
2017-04-04T11:12:21.280Z,2064
2017-04-04T11:13:30.884Z,2160
2017-04-04T11:14:41.103Z,2112
2017-04-04T11:15:51.373Z,1920
2017-04-04T11:17:01.001Z,1836
2017-04-04T11:18:10.939Z,1928
2017-04-04T11:19:21.147Z,2048
2017-04-04T11:20:31.803Z,2180
2017-04-04T11:21:41.723Z,2244
2017-04-04T11:22:51.323Z,2276
2017-04-04T11:24:01.252Z,2288
2017-04-04T11:25:11.192Z,2316
2017-04-04T11:26:21.271Z,2300
2017-04-04T11:27:31.880Z,2220
2017-04-04T11:28:41.264Z,2076
2017-04-04T11:29:51.503Z,2164
2017-04-04T11:31:01.733Z,2196
2017-04-04T11:32:11.691Z,2220
2017-04-04T11:33:21.650Z,2308
2017-04-04T11:34:31.555Z,2296
2017-04-04T11:35:41.173Z,2112
2017-04-04T11:36:51.086Z,2056
2017-04-04T11:38:01.145Z,1956
2017-04-04T11:39:11.061Z,1836
2017-04-04T11:40:20.974Z,1720
2017-04-04T11:41:31.191Z,1656
2017-04-04T11:42:41.454Z,1640
2017-04-04T11:43:50.743Z,1612
2017-04-04T11:45:00.365Z,1680
2017-04-04T11:46:10.282Z,1736
2017-04-04T11:47:19.902Z,1768
2017-04-04T11:48:30.133Z,1852
2017-04-04T11:49:41.183Z,1972
2017-04-04T11:51:54.666Z,2332
2017-04-04T11:53:04.888Z,2492
2017-04-04T11:54:15.111Z,2440
2017-04-04T11:55:25.166Z,2388
2017-04-04T11:56:35.383Z,2396
2017-04-04T11:57:45.310Z,2368
2017-04-04T11:58:55.218Z,2336
2017-04-04T12:00:04.892Z,2304
2017-04-04T12:01:14.946Z,2440
2017-04-04T12:02:24.849Z,2704
2017-04-04T12:03:34.773Z,2656
2017-04-04T12:04:44.376Z,2620
2017-04-04T12:05:54.605Z,2800
2017-04-04T12:07:04.525Z,2792
2017-04-04T12:08:14.755Z,2700
2017-04-04T12:09:24.974Z,2588
2017-04-04T12:10:34.898Z,2528
2017-04-04T12:11:44.518Z,2552
2017-04-04T12:12:54.594Z,2544
2017-04-04T12:14:03.901Z,2504
2017-04-04T12:15:14.049Z,2452
2017-04-04T12:16:24.543Z,2444
2017-04-04T12:17:34.561Z,2328
2017-04-04T12:18:44.652Z,2136
2017-04-04T12:19:54.256Z,1952
2017-04-04T12:21:03.600Z,1868
2017-04-04T12:22:13.827Z,1740
2017-04-04T12:23:23.786Z,1768
2017-04-04T12:24:34.135Z,1880
2017-04-04T12:25:44.077Z,2128
2017-04-04T12:26:54.399Z,2176
2017-04-04T12:28:04.436Z,2336
2017-04-04T12:29:14.063Z,2248
2017-04-04T12:30:23.856Z,2120
2017-04-04T12:31:33.489Z,2036
2017-04-04T12:32:43.447Z,1964
2017-04-04T12:33:53.047Z,1872
2017-04-04T12:35:02.955Z,1832
2017-04-04T12:36:12.717Z,1800
2017-04-04T12:37:22.640Z,1724
2017-04-04T12:38:32.622Z,1516
2017-04-04T12:39:42.253Z,1504
2017-04-04T12:40:51.581Z,1520
2017-04-04T12:42:01.645Z,1452
2017-04-04T12:43:11.889Z,1424
2017-04-04T12:44:21.195Z,1416
2017-04-04T12:45:31.420Z,1364
2017-04-04T12:46:41.163Z,1392
2017-04-04T12:47:51.341Z,1480
2017-04-04T12:49:00.978Z,1744
2017-04-04T12:50:11.219Z,1940
2017-04-04T12:51:21.455Z,2208
2017-04-04T12:52:31.406Z,2300
2017-04-04T12:53:41.787Z,2452
2017-04-04T12:54:51.728Z,2508
2017-04-04T12:56:01.359Z,2600
2017-04-04T12:57:11.317Z,2688
2017-04-04T12:58:21.242Z,2736
2017-04-04T12:59:31.309Z,2668
2017-04-04T13:00:41.524Z,2588
2017-04-04T13:01:51.879Z,2416
2017-04-04T13:03:01.794Z,2264
2017-04-04T13:04:11.136Z,2068
2017-04-04T13:05:20.936Z,1916
2017-04-04T13:06:30.563Z,1680
2017-04-04T13:07:40.851Z,1504
2017-04-04T13:08:50.510Z,1240
2017-04-04T13:10:00.578Z,1076
2017-04-04T13:11:10.702Z,1032
2017-04-04T13:12:20.935Z,952
2017-04-04T13:13:30.556Z,916
2017-04-04T13:14:40.213Z,912
2017-04-04T13:15:50.491Z,924
2017-04-04T13:17:00.279Z,956
2017-04-04T13:18:09.908Z,984
2017-04-04T13:19:19.825Z,1048
2017-04-04T13:20:30.088Z,1224
2017-04-04T13:21:40.314Z,1252
2017-04-04T13:22:50.062Z,1284
2017-04-04T13:23:59.984Z,1300
2017-04-04T13:25:09.617Z,1352
2017-04-04T13:26:19.861Z,1512
2017-04-04T13:27:29.800Z,1588
2017-04-04T13:28:40.141Z,1704
2017-04-04T13:29:49.767Z,1768
2017-04-04T13:30:59.715Z,1880
2017-04-04T13:32:09.342Z,1904
2017-04-04T13:33:19.285Z,1832
2017-04-04T13:34:29.622Z,1732
2017-04-04T13:35:39.619Z,1644
2017-04-04T13:36:49.243Z,1516
2017-04-04T13:37:59.485Z,1364
2017-04-04T13:39:09.446Z,1288
2017-04-04T13:40:19.830Z,1260
2017-04-04T13:41:29.434Z,1240
2017-04-04T13:42:39.376Z,1216
2017-04-04T13:43:49.617Z,1228
2017-04-04T13:44:58.960Z,1260
2017-04-04T13:46:08.695Z,1276
2017-04-04T13:47:18.636Z,1300
2017-04-04T13:48:28.574Z,1348
2017-04-04T13:49:38.805Z,1388
2017-04-04T13:50:48.456Z,1436
2017-04-04T13:51:58.867Z,1504
2017-04-04T13:53:08.829Z,1572
2017-04-04T13:54:18.471Z,1500
2017-04-04T13:55:28.423Z,1308
2017-04-04T13:56:38.056Z,1220
2017-04-04T13:57:48.448Z,1092
2017-04-04T13:58:58.402Z,952
2017-04-04T14:00:07.411Z,884
2017-04-04T14:01:18.049Z,876
2017-04-04T14:02:27.970Z,872
2017-04-04T14:03:38.037Z,892
2017-04-04T14:04:48.003Z,920
2017-04-04T14:05:57.934Z,956
2017-04-04T14:07:08.165Z,980
2017-04-04T14:08:18.082Z,1008
2017-04-04T14:09:28.457Z,1052
2017-04-04T14:10:38.381Z,1112
2017-04-04T14:11:48.301Z,1208
2017-04-04T14:12:57.915Z,1312
2017-04-04T14:14:07.522Z,1440
2017-04-04T14:15:17.900Z,1536
2017-04-04T14:16:28.158Z,1776
2017-04-04T14:17:38.138Z,1796
2017-04-04T14:18:48.073Z,1868
2017-04-04T14:19:58.032Z,1992
2017-04-04T14:21:08.090Z,1984
2017-04-04T14:22:17.714Z,1956
2017-04-04T14:23:27.644Z,1944
2017-04-04T14:24:37.559Z,1972
2017-04-04T14:25:47.789Z,2000
2017-04-04T14:26:57.869Z,1940
2017-04-04T14:28:07.496Z,1952
2017-04-04T14:29:17.127Z,1984
2017-04-04T14:30:27.070Z,1948
2017-04-04T14:31:37.004Z,1952
2017-04-04T14:32:46.773Z,1936
2017-04-04T14:33:56.702Z,1932
2017-04-04T14:35:06.302Z,1860
2017-04-04T14:36:16.600Z,1744
2017-04-04T14:37:26.925Z,1668
2017-04-04T14:38:37.454Z,1632
2017-04-04T14:39:47.562Z,1600
2017-04-04T14:40:56.993Z,1588
2017-04-04T14:42:07.252Z,1556
2017-04-04T14:43:17.549Z,1528
2017-04-04T14:44:27.937Z,1508
2017-04-04T14:45:37.895Z,1496
2017-04-04T14:46:47.863Z,1564
2017-04-04T14:47:57.521Z,1540
2017-04-04T14:49:07.150Z,1536
2017-04-04T14:50:17.228Z,1492
2017-04-04T14:51:27.137Z,1428
2017-04-04T14:52:37.091Z,1380
2017-04-04T14:53:47.008Z,1320
2017-04-04T14:54:56.615Z,1228
2017-04-04T14:56:06.712Z,1136
2017-04-04T14:57:16.633Z,1096
2017-04-04T14:58:26.605Z,972
2017-04-04T14:59:36.896Z,928
2017-04-04T15:00:46.806Z,976
2017-04-04T15:01:57.112Z,1080
2017-04-04T15:03:07.349Z,1088
2017-04-04T15:04:17.297Z,1092
2017-04-04T15:05:27.297Z,1240
2017-04-04T15:06:37.580Z,1308
2017-04-04T15:07:47.975Z,1320
2017-04-04T15:08:57.927Z,1332
2017-04-04T15:10:07.251Z,1304
2017-04-04T15:11:17.209Z,1288
2017-04-04T15:12:27.176Z,1272
2017-04-04T15:13:37.627Z,1268
2017-04-04T15:14:47.907Z,1232
2017-04-04T15:15:58.162Z,1276
2017-04-04T15:17:07.782Z,1272
2017-04-04T15:18:18.020Z,1328
2017-04-04T15:19:28.024Z,1392
2017-04-04T15:20:37.060Z,1440
2017-04-04T15:21:47.332Z,1436
2017-04-04T15:22:57.264Z,1360
2017-04-04T15:24:07.311Z,1316
2017-04-04T15:25:18.146Z,1228
2017-04-04T15:26:27.786Z,1140
2017-04-04T15:27:37.743Z,1088
2017-04-04T15:28:47.501Z,1056
2017-04-04T15:29:57.499Z,1028
2017-04-04T15:31:07.274Z,1016
2017-04-04T15:32:17.510Z,1008
2017-04-04T15:33:27.509Z,996
2017-04-04T15:34:37.236Z,976
2017-04-04T15:35:46.892Z,960
2017-04-04T15:36:56.626Z,960
2017-04-04T15:38:06.816Z,944
2017-04-04T15:39:17.153Z,932
2017-04-04T15:40:27.418Z,912
2017-04-04T15:41:37.359Z,900
2017-04-04T15:42:47.388Z,900
2017-04-04T15:43:57.614Z,896
2017-04-04T15:45:07.227Z,888
2017-04-04T15:46:17.155Z,896
2017-04-04T15:47:27.404Z,904
2017-04-04T15:48:37.424Z,916
2017-04-04T15:49:47.666Z,944
2017-04-04T15:50:57.941Z,952
2017-04-04T15:52:07.512Z,968
2017-04-04T15:53:17.128Z,1076
2017-04-04T15:54:27.539Z,1140
2017-04-04T15:55:37.226Z,1208
2017-04-04T15:56:47.506Z,1260
2017-04-04T15:57:57.182Z,1280
2017-04-04T15:59:06.533Z,1276
2017-04-04T16:00:16.276Z,1204
2017-04-04T16:01:26.503Z,1108
2017-04-04T16:02:35.816Z,1052
2017-04-04T16:03:46.030Z,1020
2017-04-04T16:04:55.624Z,980